EKAH/AAR METAR and TAF weather

Enter ICAO airport designator
Station Type Date Time Source
EKAH METAR 2021/01/17 18:50 UTC NOAA

EKAH 171850Z AUTO 16001KT 9999 SCT022/// BKN120/// M01/M03 Q1020 R99/720295


Station Type Date Time Source
EKAH Decoded METAR 2021/01/17 18:50 UTC NOAA

Tirstrup, Denmark (EKAH) 56-18N 010-37E 25M
Jan 17, 2021 - 01:50 PM EST / 2021.01.17 1850 UTC
Wind: from the SSE (160 degrees) at 1 MPH (1 KT):0
Visibility: greater than 7 mile(s):0
Sky conditions: mostly cloudy
Temperature: 30 F (-1 C)
Dew Point: 26 F (-3 C)
Relative Humidity: 86%
Pressure (altimeter): 30.12 in. Hg (1020 hPa)
ob: EKAH 171850Z AUTO 16001KT 9999 SCT022/// BKN120/// M01/M03 Q1020 R99/720295
cycle: 19

Station Type Date Time Source
EKAH TAF 2021/01/17 18:30 UTC NOAA

TAF TAF EKAH 171715Z 1718/1818 14003KT 9999 BKN040
TEMPO 1722/1808 3500 -SN BKN010
TEMPO 1810/1816 4000 RADZ BKN004
TEMPO 1816/1818 4000 RADZ BKN012

Example: see airport list